Time;durP1;ratioP1;P1;durP2;ratioP2;P2;SDS_P1;SDS_P2;PMS_P1;PMS_P2;Temp;Humidity;BMP_temperature;BMP_pressure;BME280_temperature;BME280_humidity;BME280_pressure;Samples;Min_cycle;Max_cycle;Signal;HPM_P1;HPM_P2
2021/06/07 00:01:23;;;;;;;40.43;36.63;;;17.40;92.40;;;;;;5054761;28;20453;-77
2021/06/07 00:03:50;;;;;;;37.30;33.83;;;17.40;93.00;;;;;;5054122;28;21131;-78
2021/06/07 00:06:18;;;;;;;40.30;36.60;;;17.40;93.00;;;;;;5055458;28;20461;-78
2021/06/07 00:08:46;;;;;;;39.23;35.73;;;17.50;92.70;;;;;;5060118;28;21044;-77
2021/06/07 00:11:13;;;;;;;40.47;36.40;;;17.50;92.60;;;;;;5060777;28;20483;-78
2021/06/07 00:13:43;;;;;;;41.47;37.60;;;17.50;92.40;;;;;;5054926;28;20607;-78
2021/06/07 00:16:10;;;;;;;40.73;37.00;;;17.40;92.40;;;;;;5051681;28;20460;-80
2021/06/07 00:18:37;;;;;;;39.97;36.37;;;17.50;92.40;;;;;;5048185;28;20462;-78
2021/06/07 00:21:08;;;;;;;42.77;38.23;;;17.40;92.60;;;;;;5055234;28;20462;-78
2021/06/07 00:23:34;;;;;;;40.77;36.77;;;17.40;92.60;;;;;;5060910;28;21039;-78
2021/06/07 00:26:03;;;;;;;42.13;37.93;;;17.50;92.30;;;;;;5051389;28;20465;-81
2021/06/07 00:28:29;;;;;;;41.83;37.77;;;17.50;92.30;;;;;;5062996;28;20575;-78
2021/06/07 00:30:56;;;;;;;40.20;36.60;;;17.40;92.30;;;;;;5060796;28;20484;-79
2021/06/07 00:33:22;;;;;;;42.17;37.97;;;17.50;92.30;;;;;;5057620;28;20497;-78
2021/06/07 00:35:49;;;;;;;43.57;39.57;;;17.50;92.10;;;;;;5058582;28;21237;-78
2021/06/07 00:38:15;;;;;;;41.37;37.37;;;17.50;92.10;;;;;;5066907;28;20462;-79
2021/06/07 00:40:42;;;;;;;40.43;36.80;;;17.40;92.30;;;;;;5056524;28;21096;-77
2021/06/07 00:43:09;;;;;;;41.00;36.87;;;17.40;92.30;;;;;;5066836;28;20470;-79
2021/06/07 00:45:39;;;;;;;40.50;36.70;;;17.40;92.30;;;;;;5059645;28;20466;-78
2021/06/07 00:48:07;;;;;;;42.43;38.23;;;17.50;92.20;;;;;;5064666;28;20542;-78
2021/06/07 00:50:39;;;;;;;40.57;36.57;;;17.40;92.50;;;;;;5058075;28;20593;-79
2021/06/07 00:53:10;;;;;;;40.67;36.80;;;17.30;93.10;;;;;;5052046;28;20491;-78
2021/06/07 00:55:39;;;;;;;42.03;37.73;;;17.30;93.10;;;;;;5061077;28;20496;-78
2021/06/07 00:58:07;;;;;;;40.40;36.43;;;17.40;92.60;;;;;;5056974;28;20545;-79
2021/06/07 01:00:36;;;;;;;40.50;36.70;;;17.40;92.60;;;;;;5057854;28;20454;-80
2021/06/07 01:03:04;;;;;;;39.53;35.80;;;17.30;92.50;;;;;;5059904;28;20553;-77
2021/06/07 01:05:30;;;;;;;42.97;38.57;;;17.30;92.50;;;;;;5058814;28;20548;-80
2021/06/07 01:07:57;;;;;;;38.60;34.57;;;17.20;93.20;;;;;;5059221;28;20574;-77
2021/06/07 01:10:26;;;;;;;39.60;35.70;;;17.20;93.30;;;;;;5052895;28;20458;-78
2021/06/07 01:12:53;;;;;;;39.47;35.57;;;17.00;93.70;;;;;;5050416;28;20490;-79
2021/06/07 01:15:20;;;;;;;40.80;36.40;;;16.90;94.40;;;;;;5058478;28;20578;-78
2021/06/07 01:17:49;;;;;;;40.57;36.57;;;17.00;94.30;;;;;;5058015;28;20460;-77
2021/06/07 01:20:19;;;;;;;41.87;37.77;;;17.00;93.90;;;;;;5054940;28;20455;-79
2021/06/07 01:22:48;;;;;;;42.07;37.57;;;17.10;93.50;;;;;;5051580;28;20492;-78
2021/06/07 01:25:20;;;;;;;40.63;36.47;;;17.10;93.40;;;;;;5058475;28;20566;-78
2021/06/07 01:27:47;;;;;;;41.63;37.40;;;17.20;93.40;;;;;;5057592;28;20458;-78
2021/06/07 01:30:17;;;;;;;40.27;36.30;;;17.10;93.20;;;;;;5054177;28;20581;-77
2021/06/07 01:32:44;;;;;;;41.23;37.23;;;17.10;93.30;;;;;;5059122;28;20490;-78
2021/06/07 01:35:13;;;;;;;39.57;35.60;;;17.20;93.50;;;;;;5057274;28;21027;-80
2021/06/07 01:37:41;;;;;;;40.87;36.60;;;17.20;93.30;;;;;;5063620;28;20492;-77
2021/06/07 01:40:12;;;;;;;41.90;37.40;;;17.10;93.50;;;;;;5055022;28;20457;-78
2021/06/07 01:42:38;;;;;;;42.43;37.90;;;17.10;93.60;;;;;;5054763;28;22882;-78
2021/06/07 01:45:06;;;;;;;41.30;36.90;;;17.10;93.70;;;;;;5047761;28;21317;-78
2021/06/07 01:47:33;;;;;;;40.53;36.50;;;17.10;93.50;;;;;;5054018;28;20488;-78
2021/06/07 01:49:59;;;;;;;44.50;37.00;;;17.30;92.90;;;;;;5057187;28;20466;-78
2021/06/07 01:52:26;;;;;;;40.90;36.50;;;17.30;92.60;;;;;;5042839;28;20488;-79
2021/06/07 01:54:53;;;;;;;40.27;36.00;;;17.40;92.00;;;;;;5059738;28;20458;-79
2021/06/07 01:57:21;;;;;;;40.90;36.70;;;17.40;91.80;;;;;;5059667;28;20812;-78
2021/06/07 01:59:47;;;;;;;42.70;38.10;;;17.30;92.30;;;;;;5050429;28;21060;-78
2021/06/07 02:02:14;;;;;;;40.80;36.60;;;17.30;92.50;;;;;;5060512;28;20484;-78
2021/06/07 02:04:40;;;;;;;40.90;36.50;;;17.10;92.90;;;;;;5057678;28;20683;-77
2021/06/07 02:07:06;;;;;;;42.63;38.30;;;17.00;93.50;;;;;;5060748;28;20461;-80
2021/06/07 02:09:33;;;;;;;43.17;38.77;;;17.10;93.70;;;;;;5046075;28;20458;-79
2021/06/07 02:11:59;;;;;;;41.70;37.40;;;17.10;93.50;;;;;;5056775;28;20704;-78
2021/06/07 02:14:27;;;;;;;40.70;36.70;;;17.10;93.40;;;;;;5057230;28;20454;-80
2021/06/07 02:16:53;;;;;;;41.17;37.13;;;17.10;93.30;;;;;;5049941;28;20469;-79
2021/06/07 02:19:20;;;;;;;40.53;36.40;;;17.20;93.20;;;;;;5052319;28;20545;-77
2021/06/07 02:21:46;;;;;;;43.50;39.00;;;17.20;92.90;;;;;;5048958;28;20475;-78
2021/06/07 02:24:13;;;;;;;39.33;35.43;;;17.30;92.70;;;;;;5055644;28;20473;-77
2021/06/07 02:26:39;;;;;;;41.60;37.10;;;17.20;92.80;;;;;;5060176;28;21265;-78
2021/06/07 02:29:07;;;;;;;42.70;38.20;;;17.20;92.60;;;;;;5049614;28;20475;-77
2021/06/07 02:31:36;;;;;;;41.70;37.27;;;17.20;92.40;;;;;;5058070;28;21284;-78
2021/06/07 02:34:05;;;;;;;42.17;37.80;;;17.20;92.80;;;;;;5063447;28;20483;-78
2021/06/07 02:36:34;;;;;;;42.80;38.53;;;17.20;92.80;;;;;;5061026;28;20468;-77
2021/06/07 02:39:00;;;;;;;43.00;38.53;;;17.30;92.30;;;;;;5057757;28;20465;-77
2021/06/07 02:41:28;;;;;;;44.50;39.90;;;17.30;92.30;;;;;;5051292;28;20455;-77
2021/06/07 02:43:55;;;;;;;41.00;36.87;;;17.20;92.60;;;;;;5049532;28;20576;-77
2021/06/07 02:46:22;;;;;;;42.70;38.30;;;17.20;92.70;;;;;;5052372;28;20577;-77
2021/06/07 02:48:50;;;;;;;42.10;37.97;;;17.30;92.30;;;;;;5054267;28;20480;-77
2021/06/07 02:51:17;;;;;;;41.07;36.97;;;17.20;92.60;;;;;;5056136;28;20483;-76
2021/06/07 02:53:44;;;;;;;44.40;39.80;;;17.30;92.40;;;;;;5063734;28;20484;-77
2021/06/07 02:56:11;;;;;;;41.57;37.67;;;17.20;92.50;;;;;;5060047;28;20461;-77
2021/06/07 02:58:37;;;;;;;43.57;39.00;;;17.30;92.50;;;;;;5044837;28;20492;-78
2021/06/07 03:01:06;;;;;;;43.47;39.00;;;17.30;92.50;;;;;;5053119;28;20491;-79
2021/06/07 03:03:32;;;;;;;44.90;40.00;;;17.40;91.80;;;;;;5062670;28;20477;-79
2021/06/07 03:06:00;;;;;;;46.10;40.57;;;17.20;91.80;;;;;;5054355;28;20820;-77
2021/06/07 03:08:29;;;;;;;47.10;41.60;;;17.10;92.50;;;;;;5057266;28;20456;-78
2021/06/07 03:10:57;;;;;;;47.40;41.10;;;17.00;92.90;;;;;;5051007;28;20863;-78
2021/06/07 03:13:24;;;;;;;43.87;39.27;;;17.00;93.30;;;;;;5052221;28;20492;-77
2021/06/07 03:15:52;;;;;;;46.33;40.40;;;17.00;93.50;;;;;;5046299;28;20463;-78
2021/06/07 03:18:18;;;;;;;50.37;41.10;;;17.10;93.00;;;;;;5058287;28;20466;-79
2021/06/07 03:20:45;;;;;;;46.23;41.53;;;17.20;92.70;;;;;;5051227;28;20508;-80
2021/06/07 03:23:15;;;;;;;45.93;41.20;;;17.00;92.90;;;;;;5049686;28;20475;-77
2021/06/07 03:25:44;;;;;;;47.70;42.13;;;17.00;93.40;;;;;;5045891;28;20461;-77
2021/06/07 03:28:11;;;;;;;46.47;41.47;;;17.00;93.40;;;;;;5050845;28;20454;-77
2021/06/07 03:30:38;;;;;;;44.90;40.20;;;17.00;93.30;;;;;;5046040;28;20516;-79
2021/06/07 03:33:05;;;;;;;47.40;41.70;;;16.90;93.50;;;;;;5044860;28;20491;-78
2021/06/07 03:35:32;;;;;;;46.23;41.10;;;16.90;93.50;;;;;;5049564;28;20473;-80
2021/06/07 03:37:59;;;;;;;48.53;41.23;;;17.10;93.20;;;;;;5060131;28;21157;-78
2021/06/07 03:40:29;;;;;;;44.83;39.40;;;17.10;93.00;;;;;;5060259;28;20515;-78
2021/06/07 03:42:56;;;;;;;46.07;41.10;;;17.00;93.30;;;;;;5063080;28;20470;-78
2021/06/07 03:45:23;;;;;;;48.17;42.90;;;17.00;93.20;;;;;;5052002;28;20469;-78
2021/06/07 03:47:50;;;;;;;47.80;42.10;;;17.00;93.20;;;;;;5060135;28;20450;-79
2021/06/07 03:50:18;;;;;;;46.93;41.77;;;16.90;93.60;;;;;;5053104;28;20536;-81
2021/06/07 03:52:45;;;;;;;47.97;41.67;;;16.90;94.00;;;;;;5055728;28;20529;-78
2021/06/07 03:55:13;;;;;;;46.30;41.40;;;16.90;94.10;;;;;;5046626;28;20458;-80
2021/06/07 03:57:41;;;;;;;51.13;43.70;;;17.00;93.70;;;;;;5056098;28;20470;-77
2021/06/07 04:00:10;;;;;;;48.17;42.27;;;17.00;93.70;;;;;;5056272;28;20455;-78
2021/06/07 04:02:38;;;;;;;57.87;45.27;;;16.90;94.00;;;;;;5063662;28;20560;-79
2021/06/07 04:05:06;;;;;;;51.03;41.40;;;16.90;94.00;;;;;;5054835;28;20453;-79
2021/06/07 04:07:34;;;;;;;51.43;42.03;;;16.90;94.10;;;;;;5047220;28;20457;-79
2021/06/07 04:10:00;;;;;;;45.83;40.70;;;17.00;93.80;;;;;;5050298;28;20834;-79
2021/06/07 04:12:27;;;;;;;49.03;42.33;;;17.10;93.20;;;;;;5062306;28;20474;-78
2021/06/07 04:14:55;;;;;;;45.70;40.70;;;17.00;93.90;;;;;;5055348;28;20485;-79
2021/06/07 04:17:21;;;;;;;46.63;41.67;;;16.80;94.40;;;;;;5053704;28;20528;-79
2021/06/07 04:19:47;;;;;;;45.43;40.97;;;16.70;94.80;;;;;;5052589;28;20467;-78
2021/06/07 04:22:14;;;;;;;50.20;43.17;;;16.60;95.80;;;;;;5051383;28;20493;-80
2021/06/07 04:24:42;;;;;;;44.97;40.10;;;16.70;95.60;;;;;;5053705;28;21248;-75
2021/06/07 04:27:09;;;;;;;47.37;39.93;;;16.80;94.90;;;;;;5067071;28;20560;-78
2021/06/07 04:29:36;;;;;;;45.90;40.87;;;16.70;94.80;;;;;;5064004;28;20454;-78
2021/06/07 04:32:05;;;;;;;47.20;42.00;;;16.70;95.10;;;;;;5053418;28;21164;-77
2021/06/07 04:34:31;;;;;;;48.03;40.73;;;16.70;95.20;;;;;;5061582;28;20203;-78
2021/06/07 04:36:58;;;;;;;42.37;37.83;;;16.60;95.70;;;;;;5058757;28;20989;-80
2021/06/07 04:39:24;;;;;;;43.37;38.63;;;16.50;96.20;;;;;;5055276;28;20526;-77
2021/06/07 04:41:51;;;;;;;49.03;40.00;;;16.40;96.90;;;;;;5052221;28;20466;-80
2021/06/07 04:44:17;;;;;;;46.83;41.37;;;16.50;96.60;;;;;;5051000;28;21033;-77
2021/06/07 04:46:44;;;;;;;46.77;39.03;;;16.40;96.50;;;;;;5046226;28;20455;-80
2021/06/07 04:49:12;;;;;;;52.67;41.40;;;16.40;96.80;;;;;;5056377;28;20456;-79
2021/06/07 04:51:39;;;;;;;47.17;40.67;;;16.50;96.50;;;;;;5057114;28;20473;-78
2021/06/07 04:54:06;;;;;;;45.80;39.07;;;16.60;96.50;;;;;;5052681;28;20572;-80
2021/06/07 04:56:33;;;;;;;45.27;38.77;;;16.60;96.30;;;;;;5051558;28;20816;-79
2021/06/07 04:58:59;;;;;;;44.77;39.97;;;16.50;96.40;;;;;;5061547;28;20449;-77
2021/06/07 05:01:26;;;;;;;48.80;40.50;;;16.60;96.40;;;;;;5059260;28;20447;-78
2021/06/07 05:03:52;;;;;;;40.90;36.47;;;16.50;96.30;;;;;;5067464;28;20509;-78
2021/06/07 05:06:20;;;;;;;42.27;37.33;;;16.40;97.30;;;;;;5057323;28;20490;-78
2021/06/07 05:08:47;;;;;;;43.93;38.20;;;16.40;97.00;;;;;;5062299;28;20549;-79
2021/06/07 05:11:15;;;;;;;49.07;41.03;;;16.50;96.90;;;;;;5068623;28;20474;-80
2021/06/07 05:13:41;;;;;;;41.27;36.80;;;16.40;96.90;;;;;;5067260;28;20512;-78
2021/06/07 05:16:10;;;;;;;42.13;35.87;;;16.50;96.90;;;;;;5062139;28;20461;-82
2021/06/07 05:18:37;;;;;;;39.93;35.70;;;16.60;96.20;;;;;;5065767;28;20481;-79
2021/06/07 05:21:04;;;;;;;44.37;39.40;;;16.60;96.30;;;;;;5064635;28;20466;-80
2021/06/07 05:23:32;;;;;;;47.30;40.17;;;16.60;96.60;;;;;;5067067;28;20465;-79
2021/06/07 05:25:59;;;;;;;47.10;39.13;;;16.90;96.00;;;;;;5064186;28;20536;-79
2021/06/07 05:28:25;;;;;;;42.83;36.47;;;16.90;95.50;;;;;;5059073;28;20962;-79
2021/06/07 05:30:52;;;;;;;41.83;36.30;;;17.00;95.10;;;;;;5066424;28;20462;-80
2021/06/07 05:33:19;;;;;;;45.40;40.10;;;17.00;95.10;;;;;;5062282;28;20586;-81
2021/06/07 05:35:48;;;;;;;43.03;38.40;;;16.80;95.90;;;;;;5071799;28;20526;-83
2021/06/07 05:38:15;;;;;;;41.73;37.50;;;16.80;96.10;;;;;;5069270;28;21210;-83
2021/06/07 05:40:44;;;;;;;44.07;37.27;;;16.80;96.00;;;;;;5059066;28;20554;-80
2021/06/07 05:43:11;;;;;;;43.83;39.23;;;16.60;96.50;;;;;;5053837;28;21077;-81
2021/06/07 05:45:38;;;;;;;45.47;37.90;;;16.50;97.40;;;;;;5057958;28;21113;-80
2021/06/07 05:48:05;;;;;;;42.90;36.77;;;16.40;97.50;;;;;;5059869;28;20497;-81
2021/06/07 05:50:34;;;;;;;48.43;38.53;;;16.40;98.00;;;;;;5059392;28;20454;-80
2021/06/07 05:53:02;;;;;;;48.73;36.63;;;16.20;98.70;;;;;;5063514;28;20486;-83
2021/06/07 05:55:30;;;;;;;47.40;38.20;;;16.20;99.50;;;;;;5059907;28;20455;-78
2021/06/07 05:58:00;;;;;;;44.10;35.43;;;16.40;98.60;;;;;;5058617;28;20454;-79
2021/06/07 06:00:29;;;;;;;42.27;35.30;;;16.50;98.00;;;;;;5069160;28;20508;-81
2021/06/07 06:02:55;;;;;;;44.47;36.00;;;16.40;98.10;;;;;;5062150;28;22729;-81
2021/06/07 06:05:22;;;;;;;45.72;37.80;;;16.50;97.80;;;;;;5068195;28;20470;-81
2021/06/07 06:07:49;;;;;;;44.00;35.83;;;16.40;98.40;;;;;;5069961;28;20825;-80
2021/06/07 06:10:17;;;;;;;44.50;34.70;;;16.30;98.90;;;;;;5067820;28;20458;-80
2021/06/07 06:12:44;;;;;;;40.03;33.10;;;16.20;99.20;;;;;;5075805;28;20484;-79
2021/06/07 06:15:13;;;;;;;42.47;32.23;;;16.20;99.80;;;;;;5066997;28;20565;-78
2021/06/07 06:17:43;;;;;;;38.90;31.80;;;16.20;99.50;;;;;;5058267;28;20455;-79
2021/06/07 06:20:10;;;;;;;40.27;33.40;;;16.40;99.00;;;;;;5058647;28;20463;-79
2021/06/07 06:22:37;;;;;;;42.30;33.03;;;16.50;99.00;;;;;;5073453;28;20473;-80
2021/06/07 06:25:05;;;;;;;38.00;33.73;;;16.60;98.10;;;;;;5071276;28;20473;-79
2021/06/07 06:27:31;;;;;;;38.13;34.03;;;16.60;98.20;;;;;;5068528;28;20447;-79
2021/06/07 06:29:58;;;;;;;36.37;32.47;;;16.50;98.40;;;;;;5069320;28;20454;-79
2021/06/07 06:32:27;;;;;;;37.80;33.77;;;16.60;98.10;;;;;;5072221;28;20490;-79
2021/06/07 06:34:54;;;;;;;40.27;33.20;;;16.70;98.00;;;;;;5064271;28;21062;-78
2021/06/07 06:37:21;;;;;;;35.30;31.40;;;16.90;97.20;;;;;;5062327;28;20552;-78
2021/06/07 06:39:47;;;;;;;36.40;32.40;;;16.80;97.20;;;;;;5048575;28;20470;-78
2021/06/07 06:42:13;;;;;;;41.03;34.80;;;16.90;97.30;;;;;;5064458;28;20983;-76
2021/06/07 06:44:40;;;;;;;40.87;33.00;;;16.90;97.40;;;;;;5059741;28;20509;-78
2021/06/07 06:47:06;;;;;;;37.80;33.77;;;17.10;96.20;;;;;;5061798;28;21018;-77
2021/06/07 06:49:36;;;;;;;37.10;32.10;;;17.00;96.30;;;;;;5057319;28;22620;-79
2021/06/07 06:52:03;;;;;;;38.50;32.23;;;16.80;97.00;;;;;;5055137;28;20481;-78
2021/06/07 06:54:29;;;;;;;42.77;34.60;;;16.70;97.60;;;;;;5061510;28;20536;-79
2021/06/07 06:56:56;;;;;;;37.93;33.77;;;16.60;98.00;;;;;;5051039;28;20486;-78
2021/06/07 06:59:22;;;;;;;37.73;32.07;;;16.70;98.10;;;;;;5054498;28;20971;-78
2021/06/07 07:01:49;;;;;;;38.80;34.03;;;16.60;98.00;;;;;;5045662;28;20454;-78
2021/06/07 07:04:15;;;;;;;40.13;34.40;;;16.50;98.50;;;;;;5045164;28;20501;-78
2021/06/07 07:06:43;;;;;;;39.07;33.27;;;16.60;98.50;;;;;;5046879;28;20470;-78
2021/06/07 07:09:09;;;;;;;36.03;32.20;;;16.70;98.00;;;;;;5060111;28;20452;-78
2021/06/07 07:11:36;;;;;;;36.00;32.00;;;16.70;97.60;;;;;;5063213;28;20548;-78
2021/06/07 07:14:02;;;;;;;37.93;30.97;;;16.70;97.90;;;;;;5063774;28;20506;-77
2021/06/07 07:16:29;;;;;;;35.10;31.37;;;16.70;98.00;;;;;;5062417;28;20461;-77
2021/06/07 07:18:56;;;;;;;34.57;30.97;;;16.80;97.90;;;;;;5062248;28;20465;-78
2021/06/07 07:21:22;;;;;;;35.50;31.53;;;16.80;97.90;;;;;;5061933;28;20454;-78
2021/06/07 07:23:50;;;;;;;37.63;33.17;;;16.80;98.10;;;;;;5064443;28;20484;-78
2021/06/07 07:26:19;;;;;;;35.07;31.27;;;16.90;97.70;;;;;;5059636;28;20450;-78
2021/06/07 07:28:46;;;;;;;34.60;29.50;;;16.90;97.60;;;;;;5058752;28;20921;-77
2021/06/07 07:31:12;;;;;;;34.37;30.63;;;16.80;98.00;;;;;;5050627;28;20896;-78
2021/06/07 07:33:39;;;;;;;32.23;28.83;;;17.00;97.40;;;;;;5062868;28;20482;-78
2021/06/07 07:36:11;;;;;;;37.00;32.47;;;16.90;97.40;;;;;;5063162;28;20462;-78
2021/06/07 07:38:37;;;;;;;36.37;32.07;;;17.00;97.70;;;;;;5058647;28;20473;-78
2021/06/07 07:41:05;;;;;;;35.00;31.33;;;17.00;97.70;;;;;;5058425;28;20464;-78
2021/06/07 07:43:32;;;;;;;32.77;29.43;;;17.00;97.70;;;;;;5062924;28;20476;-77
2021/06/07 07:45:59;;;;;;;31.20;28.20;;;17.10;96.70;;;;;;5055276;28;20462;-79
2021/06/07 07:48:25;;;;;;;32.10;28.80;;;17.10;96.80;;;;;;5059250;28;20459;-77
2021/06/07 07:50:52;;;;;;;31.57;28.50;;;17.10;96.60;;;;;;5062203;28;20469;-79
2021/06/07 07:53:19;;;;;;;29.70;26.83;;;17.00;97.00;;;;;;5057082;28;20485;-79
2021/06/07 07:55:46;;;;;;;32.43;29.43;;;17.00;97.10;;;;;;5063320;28;20827;-79
2021/06/07 07:58:14;;;;;;;29.10;26.30;;;16.90;97.70;;;;;;5067597;28;20489;-79
2021/06/07 08:00:41;;;;;;;30.33;27.33;;;16.90;97.50;;;;;;5063027;28;20462;-78
2021/06/07 08:03:08;;;;;;;31.37;28.50;;;16.80;98.10;;;;;;5067408;28;20487;-79
2021/06/07 08:05:36;;;;;;;30.93;27.90;;;16.80;97.80;;;;;;5070024;28;20531;-79
2021/06/07 08:08:03;;;;;;;29.47;26.93;;;16.90;98.40;;;;;;5058394;28;20457;-78
2021/06/07 08:10:36;;;;;;;28.03;25.47;;;17.00;97.60;;;;;;5050814;28;20518;-78
2021/06/07 08:13:03;;;;;;;27.47;25.10;;;17.00;97.90;;;;;;5051913;28;20849;-78
2021/06/07 08:15:34;;;;;;;26.67;24.23;;;17.00;97.10;;;;;;5046030;28;20605;-78
2021/06/07 08:18:04;;;;;;;26.80;24.37;;;17.20;96.70;;;;;;5051220;28;21027;-78
2021/06/07 08:20:32;;;;;;;25.30;23.10;;;17.40;95.40;;;;;;5052070;28;20463;-78
2021/06/07 08:22:59;;;;;;;26.20;23.90;;;17.50;95.10;;;;;;5052600;28;21028;-79
2021/06/07 08:25:26;;;;;;;26.77;24.67;;;17.50;96.00;;;;;;5059034;28;21022;-78
2021/06/07 08:27:56;;;;;;;25.90;23.90;;;17.70;95.20;;;;;;5050079;28;20964;-79
2021/06/07 08:30:27;;;;;;;23.50;21.73;;;17.80;95.10;;;;;;5050907;28;20541;-77
2021/06/07 08:32:55;;;;;;;23.60;21.90;;;17.90;93.80;;;;;;5052667;28;20496;-78
2021/06/07 08:35:21;;;;;;;23.43;21.73;;;17.80;93.90;;;;;;5061646;28;20457;-78
2021/06/07 08:37:48;;;;;;;24.60;22.80;;;17.90;93.60;;;;;;5047849;28;20469;-78
2021/06/07 08:40:16;;;;;;;23.90;22.10;;;17.90;93.20;;;;;;5062075;28;20486;-78
2021/06/07 08:42:46;;;;;;;23.70;21.90;;;17.90;93.00;;;;;;5051332;28;21250;-78
2021/06/07 08:45:15;;;;;;;22.60;20.90;;;17.90;93.30;;;;;;5042517;28;20553;-78
2021/06/07 08:47:42;;;;;;;22.13;20.63;;;18.00;93.10;;;;;;5047621;28;20462;-77
2021/06/07 08:50:12;;;;;;;23.27;21.63;;;18.10;91.90;;;;;;5053622;28;20520;-77
2021/06/07 08:52:43;;;;;;;24.23;22.50;;;18.10;91.80;;;;;;5067010;28;20513;-78
2021/06/07 08:55:10;;;;;;;25.30;23.53;;;18.10;92.40;;;;;;5048393;28;20465;-78
2021/06/07 08:57:39;;;;;;;26.40;24.40;;;18.20;92.30;;;;;;5046699;28;20952;-77
2021/06/07 09:00:07;;;;;;;24.87;23.00;;;18.30;91.60;;;;;;5051330;28;20454;-77
2021/06/07 09:02:35;;;;;;;27.20;25.20;;;18.30;92.10;;;;;;5043844;28;20532;-77
2021/06/07 09:05:07;;;;;;;26.80;24.80;;;18.20;91.90;;;;;;5059689;28;20519;-77
2021/06/07 09:07:50;;;;;;;26.47;24.47;;;18.20;92.60;;;;;;5061774;28;20851;-77
2021/06/07 09:10:17;;;;;;;29.17;26.80;;;18.40;92.00;;;;;;5051677;28;21053;-77
2021/06/07 09:12:44;;;;;;;28.60;26.40;;;18.40;91.90;;;;;;5046975;28;20491;-78
2021/06/07 09:15:30;;;;;;;30.27;27.87;;;18.70;90.60;;;;;;5052978;28;20461;-77
2021/06/07 09:18:01;;;;;;;31.33;28.77;;;18.70;90.20;;;;;;5062408;28;20458;-78
2021/06/07 09:20:30;;;;;;;30.07;27.77;;;18.40;91.20;;;;;;5064081;28;20523;-79
2021/06/07 09:22:59;;;;;;;28.67;26.17;;;18.20;92.00;;;;;;5069549;28;20477;-79
2021/06/07 09:25:28;;;;;;;31.10;28.40;;;18.00;93.20;;;;;;5055591;28;20530;-78
2021/06/07 09:28:10;;;;;;;28.70;26.60;;;17.90;93.90;;;;;;5047175;28;20458;-78
2021/06/07 09:30:45;;;;;;;31.73;29.00;;;17.70;94.70;;;;;;5058873;28;20785;-76
2021/06/07 09:33:25;;;;;;;33.10;29.93;;;17.80;94.50;;;;;;5056769;28;20490;-76
2021/06/07 09:36:18;;;;;;;31.03;27.83;;;18.00;94.20;;;;;;5050278;28;20465;-77
2021/06/07 09:39:09;;;;;;;31.97;29.07;;;18.00;94.00;;;;;;5043623;28;20455;-77
2021/06/07 09:41:54;;;;;;;31.57;29.07;;;18.00;93.90;;;;;;5060484;28;20477;-78
2021/06/07 09:44:23;;;;;;;31.30;28.70;;;18.10;93.30;;;;;;5056760;28;20461;-76
2021/06/07 09:46:51;;;;;;;30.17;27.63;;;18.30;92.90;;;;;;5062331;28;20463;-78
2021/06/07 09:49:19;;;;;;;32.47;29.60;;;18.40;92.70;;;;;;5053903;28;20463;-78
2021/06/07 09:51:54;;;;;;;30.47;27.87;;;18.50;92.40;;;;;;5068312;28;20485;-78
2021/06/07 09:54:23;;;;;;;30.43;27.80;;;18.50;92.10;;;;;;5067765;28;20496;-79
2021/06/07 09:56:53;;;;;;;32.50;29.53;;;18.50;91.80;;;;;;5061120;28;21168;-79
2021/06/07 09:59:24;;;;;;;32.40;29.53;;;18.50;92.40;;;;;;5064550;28;20446;-78
2021/06/07 10:01:50;;;;;;;31.40;28.70;;;18.40;92.50;;;;;;5048439;28;20447;-79
2021/06/07 10:04:20;;;;;;;33.27;30.67;;;18.10;93.50;;;;;;5056382;28;20485;-81
2021/06/07 10:06:46;;;;;;;32.60;29.43;;;18.20;93.90;;;;;;5076436;28;20452;-80
2021/06/07 10:09:17;;;;;;;32.50;29.47;;;18.40;92.80;;;;;;5067772;28;20820;-80
2021/06/07 10:11:46;;;;;;;31.67;28.87;;;18.50;92.40;;;;;;5070553;28;20489;-80
2021/06/07 10:14:15;;;;;;;32.67;30.00;;;18.40;92.80;;;;;;5053764;28;20491;-81
2021/06/07 10:16:53;;;;;;;31.20;28.50;;;18.70;92.20;;;;;;5072276;28;20465;-83
2021/06/07 10:19:31;;;;;;;33.80;30.73;;;18.90;91.60;;;;;;5069679;28;20700;-79
2021/06/07 10:21:58;;;;;;;33.03;30.33;;;19.20;90.80;;;;;;5053710;28;20450;-76
2021/06/07 10:24:24;;;;;;;32.10;29.60;;;19.50;89.20;;;;;;5054206;28;20469;-79
2021/06/07 10:26:52;;;;;;;32.40;29.70;;;19.70;88.40;;;;;;5054358;28;20455;-78
2021/06/07 10:29:19;;;;;;;32.30;29.97;;;19.90;87.40;;;;;;5046902;28;20458;-79
2021/06/07 10:31:46;;;;;;;33.30;30.60;;;19.60;88.30;;;;;;5052199;28;20489;-79
2021/06/07 10:34:13;;;;;;;35.33;32.53;;;19.30;89.20;;;;;;5064754;28;20851;-79
2021/06/07 10:36:42;;;;;;;32.13;29.63;;;19.20;89.80;;;;;;5050918;28;20541;-79
2021/06/07 10:39:25;;;;;;;33.83;31.00;;;19.20;90.30;;;;;;5063556;28;20460;-80
2021/06/07 10:42:25;;;;;;;31.93;29.17;;;19.30;89.40;;;;;;5066687;28;20454;-79
2021/06/07 10:45:03;;;;;;;32.23;29.57;;;19.50;88.80;;;;;;5070202;28;20535;-80
2021/06/07 10:47:40;;;;;;;32.47;29.80;;;19.70;88.30;;;;;;5068250;28;20442;-79
2021/06/07 10:50:10;;;;;;;33.80;31.20;;;19.60;88.00;;;;;;5067459;28;20491;-79
2021/06/07 10:52:42;;;;;;;32.80;30.10;;;19.50;87.90;;;;;;5073468;28;20919;-79
2021/06/07 10:55:11;;;;;;;32.33;29.83;;;19.40;88.70;;;;;;5071151;28;20486;-79
2021/06/07 10:57:41;;;;;;;30.90;28.60;;;19.50;88.10;;;;;;5063234;28;20459;-78
2021/06/07 11:00:15;;;;;;;31.20;28.80;;;19.70;87.30;;;;;;5057347;28;20966;-81
2021/06/07 11:02:44;;;;;;;34.13;31.53;;;19.70;87.30;;;;;;5053682;28;21001;-82
2021/06/07 11:05:13;;;;;;;33.53;31.03;;;19.70;87.40;;;;;;5054198;28;20459;-82
2021/06/07 11:07:43;;;;;;;31.63;29.23;;;19.60;87.70;;;;;;5075123;28;20470;-80
2021/06/07 11:10:29;;;;;;;32.13;29.43;;;19.60;87.80;;;;;;5077521;28;20484;-80
2021/06/07 11:12:59;;;;;;;33.43;30.70;;;19.60;88.00;;;;;;5063695;28;20514;-80
2021/06/07 11:15:27;;;;;;;33.23;30.83;;;19.40;88.90;;;;;;5056570;28;20523;-83
2021/06/07 11:18:25;;;;;;;31.30;29.10;;;19.40;88.50;;;;;;5051076;28;20538;-84
2021/06/07 11:20:53;;;;;;;33.90;31.30;;;19.40;88.20;;;;;;5054840;28;21414;-81
2021/06/07 11:23:21;;;;;;;31.53;29.00;;;19.30;89.00;;;;;;5056070;28;20462;-80
2021/06/07 11:25:53;;;;;;;31.70;29.20;;;19.30;89.30;;;;;;5055559;28;20468;-81
2021/06/07 11:28:43;;;;;;;30.80;28.50;;;19.20;89.50;;;;;;5056909;28;20462;-79
2021/06/07 11:31:39;;;;;;;32.70;30.40;;;19.00;90.00;;;;;;5054913;28;20586;-82
2021/06/07 11:34:08;;;;;;;32.67;30.30;;;19.00;90.50;;;;;;5069997;28;21009;-80
2021/06/07 11:36:43;;;;;;;33.10;30.57;;;18.90;91.10;;;;;;5070882;28;20975;-81
2021/06/07 11:39:12;;;;;;;31.13;28.63;;;19.00;90.60;;;;;;5070869;28;20541;-81
2021/06/07 11:41:51;;;;;;;32.00;29.60;;;19.00;90.20;;;;;;5064343;28;20465;-83
2021/06/07 11:44:39;;;;;;;29.97;27.77;;;19.00;90.70;;;;;;5055691;28;20485;-80
2021/06/07 11:47:06;;;;;;;31.20;28.90;;;19.00;90.60;;;;;;5064403;28;20446;-80
2021/06/07 11:49:32;;;;;;;32.87;30.47;;;19.10;89.90;;;;;;5056068;28;20453;-79
2021/06/07 11:52:08;;;;;;;30.23;27.80;;;19.20;89.60;;;;;;5067605;28;21313;-80
2021/06/07 11:54:52;;;;;;;31.60;29.40;;;19.40;89.40;;;;;;5068474;28;20921;-80
2021/06/07 11:57:22;;;;;;;30.77;28.57;;;19.70;88.30;;;;;;5067622;28;20537;-81
2021/06/07 11:59:59;;;;;;;34.60;31.90;;;19.90;87.60;;;;;;5068168;28;20465;-81
2021/06/07 12:02:27;;;;;;;32.87;30.57;;;19.90;86.90;;;;;;5071194;28;20458;-81
2021/06/07 12:04:54;;;;;;;32.53;30.23;;;20.00;87.10;;;;;;5066629;28;20545;-81
2021/06/07 12:07:22;;;;;;;34.77;32.20;;;20.10;86.40;;;;;;5070695;28;20518;-81
2021/06/07 12:09:50;;;;;;;34.50;32.00;;;20.20;85.50;;;;;;5074027;28;20542;-81
2021/06/07 12:12:17;;;;;;;33.97;31.30;;;19.90;86.40;;;;;;5064931;28;20490;-83
2021/06/07 12:14:46;;;;;;;34.77;32.17;;;20.00;86.40;;;;;;5070092;28;20468;-81
2021/06/07 12:17:17;;;;;;;32.50;30.13;;;20.00;86.60;;;;;;5073341;28;21219;-80
2021/06/07 12:19:47;;;;;;;33.63;31.23;;;20.10;86.30;;;;;;5071027;28;20465;-81
2021/06/07 12:22:31;;;;;;;31.90;29.60;;;19.90;87.00;;;;;;5072877;28;20467;-81
2021/06/07 12:25:02;;;;;;;32.00;29.73;;;20.00;87.00;;;;;;5076725;28;20536;-80
2021/06/07 12:30:16;;;;;;;33.10;30.80;;;20.00;86.50;;;;;;5072499;28;20904;-81
2021/06/07 12:32:48;;;;;;;34.33;31.97;;;20.00;86.70;;;;;;5073621;28;20503;-79
2021/06/07 12:35:16;;;;;;;32.80;30.40;;;20.30;85.70;;;;;;5072926;28;20458;-78
2021/06/07 12:37:45;;;;;;;35.47;32.97;;;20.60;84.50;;;;;;5065541;28;20578;-81
2021/06/07 12:40:28;;;;;;;33.57;31.10;;;20.80;83.90;;;;;;5073058;28;21084;-81